Russell, Mississippi
Current Conditions -  °F | °C
As of 10:58 PM on Friday 21 Nov 2014 (Local Time) from KMEI Reporting Station
Clear Clear  
Wind Chill:   Ceiling: Unl
Heat Index:   Visibility: 10mi
Dew Point:   Wind: 0mph
Humidity: 93%   Direction: NA
Pressure: 30.32"   Gusts: NA
Location:  32.3221°N, 88.5771°W
Report Text: KMEI 220458Z AUTO 00000KT 10SM CLR 06/05 A3032 RMK AO2 SLP265 T00610050
Loading
Personal Weather Stations






























Interactive Weather Map New forecast layout! Learn more

10-Day Weather Forecast

Advertisements
Track Severe Weather on mobile